createdAt,value
2023-05-14T00:06:34.862Z,58.81
2023-05-14T00:16:56.574Z,58.83
2023-05-14T00:27:17.692Z,58.60
2023-05-14T00:37:39.969Z,58.74
2023-05-14T00:48:01.406Z,58.85
2023-05-14T00:58:23.100Z,58.82
2023-05-14T01:08:44.381Z,58.73
2023-05-14T01:19:06.360Z,58.63
2023-05-14T01:29:29.104Z,59.05
2023-05-14T01:39:52.295Z,58.84
2023-05-14T01:50:14.543Z,59.02
2023-05-14T02:00:35.632Z,58.88
2023-05-14T02:10:57.356Z,59.46
2023-05-14T02:21:19.180Z,59.26
2023-05-14T02:31:40.785Z,59.48
2023-05-14T02:42:02.167Z,59.44
2023-05-14T02:52:23.609Z,58.93
2023-05-14T03:02:45.606Z,59.00
2023-05-14T03:13:07.338Z,59.08
2023-05-14T03:23:28.809Z,59.41
2023-05-14T03:33:50.223Z,58.87
2023-05-14T03:44:11.574Z,59.21
2023-05-14T03:54:32.804Z,58.98
2023-05-14T04:04:54.805Z,59.04
2023-05-14T04:15:16.349Z,59.15
2023-05-14T04:25:38.079Z,59.36
2023-05-14T04:35:59.660Z,59.47
2023-05-14T04:46:20.800Z,59.43
2023-05-14T04:56:42.285Z,59.45
2023-05-14T05:07:03.658Z,59.75
2023-05-14T05:17:25.459Z,60.03
2023-05-14T05:27:47.065Z,60.20
2023-05-14T05:38:08.076Z,60.25
2023-05-14T05:48:29.258Z,60.16
2023-05-14T05:58:50.854Z,59.82
2023-05-14T06:09:11.938Z,59.75
2023-05-14T06:19:33.019Z,59.82
2023-05-14T06:29:56.325Z,60.15
2023-05-14T06:40:19.131Z,59.99
2023-05-14T06:50:41.557Z,59.98
2023-05-14T07:01:02.930Z,59.92
2023-05-14T07:11:24.431Z,60.29
2023-05-14T07:21:45.571Z,60.47
2023-05-14T07:32:06.941Z,60.52
2023-05-14T07:42:35.876Z,60.65
2023-05-14T07:52:58.632Z,60.61
2023-05-14T08:03:19.746Z,60.46
2023-05-14T08:13:41.770Z,60.77
2023-05-14T08:24:02.961Z,61.91
2023-05-14T08:34:24.373Z,62.60
2023-05-14T08:44:50.324Z,63.22
2023-05-14T08:55:12.865Z,64.95
2023-05-14T09:05:34.114Z,64.70
2023-05-14T09:15:55.545Z,63.40
2023-05-14T09:26:18.904Z,63.33
2023-05-14T09:36:40.305Z,63.16
2023-05-14T09:47:01.428Z,62.52
2023-05-14T09:57:22.814Z,63.31
2023-05-14T10:07:48.114Z,62.70
2023-05-14T10:18:15.263Z,62.44
2023-05-14T10:28:37.583Z,62.22
2023-05-14T10:38:58.861Z,62.12
2023-05-14T10:49:28.256Z,62.33
2023-05-14T10:59:58.939Z,63.25
2023-05-14T11:10:22.254Z,63.30
2023-05-14T11:20:44.036Z,63.32
2023-05-14T11:31:05.898Z,61.96
2023-05-14T11:41:28.276Z,61.74
2023-05-14T11:51:49.230Z,62.01
2023-05-14T12:02:12.497Z,61.07
2023-05-14T12:12:37.444Z,60.93
2023-05-14T12:22:59.279Z,61.34
2023-05-14T12:33:23.115Z,60.57
2023-05-14T12:43:44.926Z,60.56
2023-05-14T12:54:06.516Z,60.50
2023-05-14T13:04:27.877Z,60.82
2023-05-14T13:14:49.469Z,61.05
2023-05-14T13:25:11.074Z,61.61
2023-05-14T13:35:32.154Z,61.95
2023-05-14T13:45:53.268Z,61.71
2023-05-14T13:56:14.744Z,61.85
2023-05-14T14:06:36.206Z,61.84
2023-05-14T14:16:57.612Z,61.85
2023-05-14T14:27:19.664Z,61.78
2023-05-14T14:37:45.771Z,61.77
2023-05-14T14:48:26.698Z,61.45
2023-05-14T14:58:47.965Z,61.32
2023-05-14T15:09:09.456Z,61.31
2023-05-14T15:19:32.637Z,61.11
2023-05-14T15:29:53.988Z,61.08
2023-05-14T15:40:15.653Z,60.93
2023-05-14T15:50:38.730Z,61.29
2023-05-14T16:00:59.880Z,61.52
2023-05-14T16:11:21.717Z,61.68
2023-05-14T16:21:44.579Z,61.89
2023-05-14T16:32:05.926Z,61.88
2023-05-14T16:42:27.743Z,62.01
2023-05-14T16:52:48.922Z,62.06
2023-05-14T17:03:10.056Z,62.23
2023-05-14T17:13:32.024Z,62.28
2023-05-14T17:23:52.617Z,62.26
2023-05-14T17:34:13.886Z,62.29
2023-05-14T17:44:36.550Z,62.18
2023-05-14T17:54:58.009Z,62.52
2023-05-14T18:05:20.678Z,62.24
2023-05-14T18:15:42.187Z,62.30
2023-05-14T18:26:03.474Z,62.82
2023-05-14T18:36:24.557Z,62.52
2023-05-14T18:46:46.160Z,62.63
2023-05-14T18:57:07.542Z,62.74
2023-05-14T19:07:28.512Z,62.21
2023-05-14T19:17:50.108Z,62.81
2023-05-14T19:28:11.668Z,62.46
2023-05-14T19:38:32.764Z,61.95
2023-05-14T19:48:53.673Z,61.99
2023-05-14T19:59:14.713Z,62.17
2023-05-14T20:09:36.165Z,62.02
2023-05-14T20:19:58.450Z,61.67
2023-05-14T20:30:20.777Z,61.75
2023-05-14T20:40:42.243Z,61.68
2023-05-14T20:51:06.611Z,61.73
2023-05-14T21:01:27.563Z,61.74
2023-05-14T21:11:49.070Z,61.93
2023-05-14T21:22:09.938Z,61.96
2023-05-14T21:32:31.160Z,61.87
2023-05-14T21:42:52.490Z,61.85
2023-05-14T21:53:13.912Z,62.04
2023-05-14T22:03:36.191Z,62.35
2023-05-14T22:13:57.445Z,62.47
2023-05-14T22:24:18.601Z,62.35
2023-05-14T22:34:39.843Z,61.95
2023-05-14T22:45:01.100Z,62.22
2023-05-14T22:55:22.440Z,61.96
2023-05-14T23:05:43.590Z,61.98
2023-05-14T23:16:06.265Z,62.46
2023-05-14T23:26:27.429Z,62.30
2023-05-14T23:36:48.715Z,62.44
2023-05-14T23:47:09.843Z,62.53
2023-05-14T23:57:31.475Z,62.02
